sensor_id;sensor_type;location;lat;lon;timestamp;P1;durP1;ratioP1;P2;durP2;ratioP2
60896;SDS011;46749;32.932;-117.130;2023-01-15T00:01:25;5.90;;;1.80;;
60896;SDS011;46749;32.932;-117.130;2023-01-15T00:03:56;8.37;;;1.60;;
60896;SDS011;46749;32.932;-117.130;2023-01-15T00:06:24;6.00;;;1.40;;
60896;SDS011;46749;32.932;-117.130;2023-01-15T00:08:52;8.70;;;2.47;;
60896;SDS011;46749;32.932;-117.130;2023-01-15T00:11:19;9.77;;;1.88;;
60896;SDS011;46749;32.932;-117.130;2023-01-15T00:13:46;7.97;;;1.90;;
60896;SDS011;46749;32.932;-117.130;2023-01-15T00:16:14;5.10;;;1.40;;
60896;SDS011;46749;32.932;-117.130;2023-01-15T00:18:43;6.82;;;1.40;;
60896;SDS011;46749;32.932;-117.130;2023-01-15T00:21:14;8.38;;;2.10;;
60896;SDS011;46749;32.932;-117.130;2023-01-15T00:23:40;8.05;;;2.38;;
60896;SDS011;46749;32.932;-117.130;2023-01-15T00:26:29;9.88;;;1.90;;
60896;SDS011;46749;32.932;-117.130;2023-01-15T00:29:14;5.45;;;1.75;;
60896;SDS011;46749;32.932;-117.130;2023-01-15T00:31:41;9.50;;;1.98;;
60896;SDS011;46749;32.932;-117.130;2023-01-15T00:34:09;6.82;;;1.73;;
60896;SDS011;46749;32.932;-117.130;2023-01-15T00:36:35;7.57;;;1.40;;
60896;SDS011;46749;32.932;-117.130;2023-01-15T00:39:03;7.20;;;2.28;;
60896;SDS011;46749;32.932;-117.130;2023-01-15T00:41:29;5.00;;;1.15;;
60896;SDS011;46749;32.932;-117.130;2023-01-15T00:43:55;8.50;;;1.58;;
60896;SDS011;46749;32.932;-117.130;2023-01-15T00:46:21;6.15;;;1.20;;
60896;SDS011;46749;32.932;-117.130;2023-01-15T00:48:48;11.30;;;1.60;;
60896;SDS011;46749;32.932;-117.130;2023-01-15T00:51:14;6.88;;;1.40;;
60896;SDS011;46749;32.932;-117.130;2023-01-15T00:53:40;6.70;;;1.45;;
60896;SDS011;46749;32.932;-117.130;2023-01-15T00:56:06;5.93;;;1.48;;
60896;SDS011;46749;32.932;-117.130;2023-01-15T00:58:32;7.97;;;1.65;;
60896;SDS011;46749;32.932;-117.130;2023-01-15T01:00:59;5.50;;;1.52;;
60896;SDS011;46749;32.932;-117.130;2023-01-15T01:03:25;5.55;;;1.60;;
60896;SDS011;46749;32.932;-117.130;2023-01-15T01:05:52;5.82;;;1.42;;
60896;SDS011;46749;32.932;-117.130;2023-01-15T01:08:18;4.63;;;1.27;;
60896;SDS011;46749;32.932;-117.130;2023-01-15T01:10:45;5.40;;;1.10;;
60896;SDS011;46749;32.932;-117.130;2023-01-15T01:13:11;7.72;;;2.17;;
60896;SDS011;46749;32.932;-117.130;2023-01-15T01:15:37;4.20;;;1.20;;
60896;SDS011;46749;32.932;-117.130;2023-01-15T01:18:04;6.68;;;1.38;;
60896;SDS011;46749;32.932;-117.130;2023-01-15T01:20:31;3.90;;;1.17;;
60896;SDS011;46749;32.932;-117.130;2023-01-15T01:22:58;3.58;;;0.90;;
60896;SDS011;46749;32.932;-117.130;2023-01-15T01:25:24;5.75;;;1.17;;
60896;SDS011;46749;32.932;-117.130;2023-01-15T01:27:51;5.28;;;1.38;;
60896;SDS011;46749;32.932;-117.130;2023-01-15T01:30:17;4.20;;;1.13;;
60896;SDS011;46749;32.932;-117.130;2023-01-15T01:32:43;2.80;;;1.00;;
60896;SDS011;46749;32.932;-117.130;2023-01-15T01:35:10;4.63;;;1.05;;
60896;SDS011;46749;32.932;-117.130;2023-01-15T01:37:36;4.18;;;0.88;;
60896;SDS011;46749;32.932;-117.130;2023-01-15T01:40:03;3.63;;;0.85;;
60896;SDS011;46749;32.932;-117.130;2023-01-15T01:42:30;5.35;;;1.13;;
60896;SDS011;46749;32.932;-117.130;2023-01-15T01:44:57;5.95;;;1.63;;
60896;SDS011;46749;32.932;-117.130;2023-01-15T01:47:32;2.85;;;0.90;;
60896;SDS011;46749;32.932;-117.130;2023-01-15T01:50:05;3.67;;;0.70;;
60896;SDS011;46749;32.932;-117.130;2023-01-15T01:52:37;6.25;;;1.42;;
60896;SDS011;46749;32.932;-117.130;2023-01-15T01:55:10;2.30;;;0.98;;
60896;SDS011;46749;32.932;-117.130;2023-01-15T01:57:39;4.75;;;1.17;;
60896;SDS011;46749;32.932;-117.130;2023-01-15T02:00:06;4.57;;;0.80;;
60896;SDS011;46749;32.932;-117.130;2023-01-15T02:02:35;4.07;;;0.55;;
60896;SDS011;46749;32.932;-117.130;2023-01-15T02:05:04;2.10;;;0.60;;
60896;SDS011;46749;32.932;-117.130;2023-01-15T02:07:32;2.22;;;0.65;;
60896;SDS011;46749;32.932;-117.130;2023-01-15T02:09:59;4.13;;;0.95;;
60896;SDS011;46749;32.932;-117.130;2023-01-15T02:12:35;3.38;;;0.90;;
60896;SDS011;46749;32.932;-117.130;2023-01-15T02:15:07;3.13;;;0.93;;
60896;SDS011;46749;32.932;-117.130;2023-01-15T02:17:52;3.80;;;0.75;;
60896;SDS011;46749;32.932;-117.130;2023-01-15T02:28:23;2.30;;;0.55;;
60896;SDS011;46749;32.932;-117.130;2023-01-15T02:30:52;2.90;;;0.82;;
60896;SDS011;46749;32.932;-117.130;2023-01-15T02:33:32;1.95;;;0.68;;
60896;SDS011;46749;32.932;-117.130;2023-01-15T02:36:02;1.10;;;0.55;;
60896;SDS011;46749;32.932;-117.130;2023-01-15T02:38:41;3.75;;;0.75;;
60896;SDS011;46749;32.932;-117.130;2023-01-15T02:41:13;1.48;;;0.60;;
60896;SDS011;46749;32.932;-117.130;2023-01-15T02:43:43;2.30;;;0.57;;
60896;SDS011;46749;32.932;-117.130;2023-01-15T02:46:13;1.77;;;0.45;;
60896;SDS011;46749;32.932;-117.130;2023-01-15T02:48:41;2.38;;;0.95;;
60896;SDS011;46749;32.932;-117.130;2023-01-15T02:51:13;3.05;;;0.90;;
60896;SDS011;46749;32.932;-117.130;2023-01-15T02:53:43;3.40;;;0.88;;
60896;SDS011;46749;32.932;-117.130;2023-01-15T02:56:21;2.88;;;0.50;;
60896;SDS011;46749;32.932;-117.130;2023-01-15T02:58:51;3.10;;;0.65;;
60896;SDS011;46749;32.932;-117.130;2023-01-15T03:01:28;3.33;;;0.80;;
60896;SDS011;46749;32.932;-117.130;2023-01-15T03:04:03;1.50;;;0.40;;
60896;SDS011;46749;32.932;-117.130;2023-01-15T03:06:45;0.93;;;0.47;;
60896;SDS011;46749;32.932;-117.130;2023-01-15T03:09:32;1.73;;;0.40;;
60896;SDS011;46749;32.932;-117.130;2023-01-15T03:14:43;1.55;;;0.40;;
60896;SDS011;46749;32.932;-117.130;2023-01-15T03:17:27;2.13;;;0.40;;
60896;SDS011;46749;32.932;-117.130;2023-01-15T03:20:15;3.15;;;0.50;;
60896;SDS011;46749;32.932;-117.130;2023-01-15T03:22:45;2.47;;;0.40;;
60896;SDS011;46749;32.932;-117.130;2023-01-15T03:25:19;1.83;;;0.50;;
60896;SDS011;46749;32.932;-117.130;2023-01-15T03:27:57;1.80;;;0.40;;
60896;SDS011;46749;32.932;-117.130;2023-01-15T03:30:27;2.20;;;0.50;;
60896;SDS011;46749;32.932;-117.130;2023-01-15T03:32:54;1.08;;;0.35;;
60896;SDS011;46749;32.932;-117.130;2023-01-15T03:38:28;1.85;;;0.50;;
60896;SDS011;46749;32.932;-117.130;2023-01-15T03:44:10;2.60;;;0.50;;
60896;SDS011;46749;32.932;-117.130;2023-01-15T03:47:09;1.55;;;0.45;;
60896;SDS011;46749;32.932;-117.130;2023-01-15T03:52:47;2.13;;;0.50;;
60896;SDS011;46749;32.932;-117.130;2023-01-15T03:55:31;0.47;;;0.30;;
60896;SDS011;46749;32.932;-117.130;2023-01-15T04:00:56;1.45;;;0.43;;
60896;SDS011;46749;32.932;-117.130;2023-01-15T04:03:26;1.58;;;0.60;;
60896;SDS011;46749;32.932;-117.130;2023-01-15T04:05:54;1.80;;;0.70;;
60896;SDS011;46749;32.932;-117.130;2023-01-15T04:08:23;2.83;;;0.45;;
60896;SDS011;46749;32.932;-117.130;2023-01-15T04:10:58;1.48;;;0.52;;
60896;SDS011;46749;32.932;-117.130;2023-01-15T04:13:26;2.03;;;0.55;;
60896;SDS011;46749;32.932;-117.130;2023-01-15T04:15:53;0.65;;;0.40;;
60896;SDS011;46749;32.932;-117.130;2023-01-15T04:18:20;3.47;;;0.63;;
60896;SDS011;46749;32.932;-117.130;2023-01-15T04:20:46;1.58;;;0.55;;
60896;SDS011;46749;32.932;-117.130;2023-01-15T04:23:13;1.15;;;0.50;;
60896;SDS011;46749;32.932;-117.130;2023-01-15T04:25:40;2.97;;;0.52;;
60896;SDS011;46749;32.932;-117.130;2023-01-15T04:28:07;1.63;;;0.57;;
60896;SDS011;46749;32.932;-117.130;2023-01-15T04:30:34;1.73;;;0.57;;
60896;SDS011;46749;32.932;-117.130;2023-01-15T04:33:01;0.95;;;0.47;;
60896;SDS011;46749;32.932;-117.130;2023-01-15T04:35:28;1.90;;;0.45;;
60896;SDS011;46749;32.932;-117.130;2023-01-15T04:37:58;2.78;;;0.90;;
60896;SDS011;46749;32.932;-117.130;2023-01-15T04:40:24;1.13;;;0.40;;
60896;SDS011;46749;32.932;-117.130;2023-01-15T04:43:12;1.63;;;0.47;;
60896;SDS011;46749;32.932;-117.130;2023-01-15T04:45:57;2.20;;;0.65;;
60896;SDS011;46749;32.932;-117.130;2023-01-15T04:48:24;2.55;;;0.47;;
60896;SDS011;46749;32.932;-117.130;2023-01-15T04:50:51;1.85;;;0.55;;
60896;SDS011;46749;32.932;-117.130;2023-01-15T04:53:17;2.70;;;0.50;;
60896;SDS011;46749;32.932;-117.130;2023-01-15T04:55:43;3.78;;;0.80;;
60896;SDS011;46749;32.932;-117.130;2023-01-15T04:58:10;2.92;;;0.60;;
60896;SDS011;46749;32.932;-117.130;2023-01-15T05:00:36;2.85;;;0.80;;
60896;SDS011;46749;32.932;-117.130;2023-01-15T05:03:02;1.95;;;0.55;;
60896;SDS011;46749;32.932;-117.130;2023-01-15T05:05:28;4.45;;;0.77;;
60896;SDS011;46749;32.932;-117.130;2023-01-15T05:07:56;6.50;;;0.85;;
60896;SDS011;46749;32.932;-117.130;2023-01-15T05:10:22;3.55;;;0.65;;
60896;SDS011;46749;32.932;-117.130;2023-01-15T05:12:49;2.92;;;0.70;;
60896;SDS011;46749;32.932;-117.130;2023-01-15T05:15:15;4.25;;;0.60;;
60896;SDS011;46749;32.932;-117.130;2023-01-15T05:17:41;2.13;;;0.60;;
60896;SDS011;46749;32.932;-117.130;2023-01-15T05:20:07;3.47;;;0.80;;
60896;SDS011;46749;32.932;-117.130;2023-01-15T05:22:34;2.53;;;0.47;;
60896;SDS011;46749;32.932;-117.130;2023-01-15T05:25:00;1.55;;;0.40;;
60896;SDS011;46749;32.932;-117.130;2023-01-15T05:27:27;5.35;;;1.13;;
60896;SDS011;46749;32.932;-117.130;2023-01-15T05:29:53;1.55;;;0.45;;
60896;SDS011;46749;32.932;-117.130;2023-01-15T05:32:19;2.55;;;0.47;;
60896;SDS011;46749;32.932;-117.130;2023-01-15T05:34:45;1.08;;;0.50;;
60896;SDS011;46749;32.932;-117.130;2023-01-15T05:37:11;2.20;;;0.60;;
60896;SDS011;46749;32.932;-117.130;2023-01-15T05:39:37;2.72;;;0.45;;
60896;SDS011;46749;32.932;-117.130;2023-01-15T05:42:04;2.15;;;0.57;;
60896;SDS011;46749;32.932;-117.130;2023-01-15T05:44:30;2.70;;;0.57;;
60896;SDS011;46749;32.932;-117.130;2023-01-15T05:46:58;2.22;;;0.50;;
60896;SDS011;46749;32.932;-117.130;2023-01-15T05:49:30;3.13;;;0.70;;
60896;SDS011;46749;32.932;-117.130;2023-01-15T05:51:57;2.47;;;0.50;;
60896;SDS011;46749;32.932;-117.130;2023-01-15T05:54:26;2.45;;;0.40;;
60896;SDS011;46749;32.932;-117.130;2023-01-15T05:56:55;1.95;;;0.57;;
60896;SDS011;46749;32.932;-117.130;2023-01-15T05:59:22;2.20;;;0.68;;
60896;SDS011;46749;32.932;-117.130;2023-01-15T06:01:51;2.10;;;0.70;;
60896;SDS011;46749;32.932;-117.130;2023-01-15T06:04:37;1.95;;;0.50;;
60896;SDS011;46749;32.932;-117.130;2023-01-15T06:07:03;3.35;;;0.60;;
60896;SDS011;46749;32.932;-117.130;2023-01-15T06:09:30;1.42;;;0.43;;
60896;SDS011;46749;32.932;-117.130;2023-01-15T06:11:56;1.67;;;0.40;;
60896;SDS011;46749;32.932;-117.130;2023-01-15T06:14:22;3.30;;;0.60;;
60896;SDS011;46749;32.932;-117.130;2023-01-15T06:16:49;2.50;;;0.85;;
60896;SDS011;46749;32.932;-117.130;2023-01-15T06:19:15;0.65;;;0.38;;
60896;SDS011;46749;32.932;-117.130;2023-01-15T06:21:41;3.50;;;0.60;;
60896;SDS011;46749;32.932;-117.130;2023-01-15T06:24:08;3.15;;;0.60;;
60896;SDS011;46749;32.932;-117.130;2023-01-15T06:26:35;0.98;;;0.50;;
60896;SDS011;46749;32.932;-117.130;2023-01-15T06:29:02;1.73;;;0.40;;
60896;SDS011;46749;32.932;-117.130;2023-01-15T06:31:29;2.20;;;0.75;;
60896;SDS011;46749;32.932;-117.130;2023-01-15T06:33:56;2.15;;;0.55;;
60896;SDS011;46749;32.932;-117.130;2023-01-15T06:36:23;2.90;;;0.40;;
60896;SDS011;46749;32.932;-117.130;2023-01-15T06:38:50;1.98;;;0.50;;
60896;SDS011;46749;32.932;-117.130;2023-01-15T06:41:18;2.95;;;0.60;;
60896;SDS011;46749;32.932;-117.130;2023-01-15T06:44:04;1.40;;;0.52;;
60896;SDS011;46749;32.932;-117.130;2023-01-15T06:46:50;2.15;;;0.55;;
60896;SDS011;46749;32.932;-117.130;2023-01-15T06:49:35;3.47;;;0.70;;
60896;SDS011;46749;32.932;-117.130;2023-01-15T06:52:02;3.00;;;0.55;;
60896;SDS011;46749;32.932;-117.130;2023-01-15T06:54:29;0.98;;;0.40;;
60896;SDS011;46749;32.932;-117.130;2023-01-15T06:56:56;2.33;;;0.55;;
60896;SDS011;46749;32.932;-117.130;2023-01-15T06:59:22;2.17;;;0.60;;
60896;SDS011;46749;32.932;-117.130;2023-01-15T07:01:48;1.98;;;0.55;;
60896;SDS011;46749;32.932;-117.130;2023-01-15T07:04:14;1.40;;;0.60;;
60896;SDS011;46749;32.932;-117.130;2023-01-15T07:06:41;3.05;;;0.70;;
60896;SDS011;46749;32.932;-117.130;2023-01-15T07:09:07;2.35;;;0.60;;
60896;SDS011;46749;32.932;-117.130;2023-01-15T07:11:33;2.85;;;0.60;;
60896;SDS011;46749;32.932;-117.130;2023-01-15T07:14:00;1.20;;;0.40;;
60896;SDS011;46749;32.932;-117.130;2023-01-15T07:16:32;1.95;;;0.35;;
60896;SDS011;46749;32.932;-117.130;2023-01-15T07:19:21;2.83;;;1.05;;
60896;SDS011;46749;32.932;-117.130;2023-01-15T07:21:47;3.15;;;0.50;;
60896;SDS011;46749;32.932;-117.130;2023-01-15T07:24:14;1.75;;;0.60;;
60896;SDS011;46749;32.932;-117.130;2023-01-15T07:26:41;1.92;;;0.68;;
60896;SDS011;46749;32.932;-117.130;2023-01-15T07:29:07;0.90;;;0.60;;
60896;SDS011;46749;32.932;-117.130;2023-01-15T07:31:34;2.90;;;0.60;;
60896;SDS011;46749;32.932;-117.130;2023-01-15T07:34:00;2.85;;;0.55;;
60896;SDS011;46749;32.932;-117.130;2023-01-15T07:36:27;2.45;;;0.60;;
60896;SDS011;46749;32.932;-117.130;2023-01-15T07:38:53;4.40;;;0.50;;
60896;SDS011;46749;32.932;-117.130;2023-01-15T07:41:19;1.92;;;0.55;;
60896;SDS011;46749;32.932;-117.130;2023-01-15T07:44:04;2.58;;;0.80;;
60896;SDS011;46749;32.932;-117.130;2023-01-15T07:46:49;3.28;;;0.70;;
60896;SDS011;46749;32.932;-117.130;2023-01-15T07:49:34;2.80;;;0.70;;
60896;SDS011;46749;32.932;-117.130;2023-01-15T07:52:16;2.17;;;0.70;;
60896;SDS011;46749;32.932;-117.130;2023-01-15T07:54:44;2.17;;;0.80;;
60896;SDS011;46749;32.932;-117.130;2023-01-15T07:57:12;2.53;;;0.70;;
60896;SDS011;46749;32.932;-117.130;2023-01-15T07:59:41;2.08;;;0.63;;
60896;SDS011;46749;32.932;-117.130;2023-01-15T08:02:07;2.78;;;0.63;;
60896;SDS011;46749;32.932;-117.130;2023-01-15T08:04:33;3.50;;;1.00;;
60896;SDS011;46749;32.932;-117.130;2023-01-15T08:07:00;3.08;;;0.50;;
60896;SDS011;46749;32.932;-117.130;2023-01-15T08:09:27;1.60;;;0.50;;
60896;SDS011;46749;32.932;-117.130;2023-01-15T08:11:57;2.85;;;0.47;;
60896;SDS011;46749;32.932;-117.130;2023-01-15T08:14:41;3.03;;;0.50;;
60896;SDS011;46749;32.932;-117.130;2023-01-15T08:17:27;1.88;;;0.73;;
60896;SDS011;46749;32.932;-117.130;2023-01-15T08:19:53;3.08;;;0.70;;
60896;SDS011;46749;32.932;-117.130;2023-01-15T08:22:19;2.50;;;0.70;;
60896;SDS011;46749;32.932;-117.130;2023-01-15T08:24:45;1.75;;;0.55;;
60896;SDS011;46749;32.932;-117.130;2023-01-15T08:27:12;1.92;;;0.63;;
60896;SDS011;46749;32.932;-117.130;2023-01-15T08:29:38;2.60;;;0.55;;
60896;SDS011;46749;32.932;-117.130;2023-01-15T08:32:04;4.38;;;0.93;;
60896;SDS011;46749;32.932;-117.130;2023-01-15T08:34:31;2.90;;;0.80;;
60896;SDS011;46749;32.932;-117.130;2023-01-15T08:36:57;2.58;;;0.77;;
60896;SDS011;46749;32.932;-117.130;2023-01-15T08:39:27;1.98;;;0.60;;
60896;SDS011;46749;32.932;-117.130;2023-01-15T08:41:54;3.80;;;0.93;;
60896;SDS011;46749;32.932;-117.130;2023-01-15T08:44:21;2.80;;;0.60;;
60896;SDS011;46749;32.932;-117.130;2023-01-15T08:46:49;2.63;;;0.80;;
60896;SDS011;46749;32.932;-117.130;2023-01-15T08:49:16;2.85;;;1.00;;
60896;SDS011;46749;32.932;-117.130;2023-01-15T08:51:44;4.25;;;0.90;;
60896;SDS011;46749;32.932;-117.130;2023-01-15T08:54:14;1.33;;;0.70;;
60896;SDS011;46749;32.932;-117.130;2023-01-15T08:56:40;3.55;;;0.70;;
60896;SDS011;46749;32.932;-117.130;2023-01-15T08:59:07;1.67;;;0.60;;
60896;SDS011;46749;32.932;-117.130;2023-01-15T09:01:34;3.17;;;0.75;;
60896;SDS011;46749;32.932;-117.130;2023-01-15T09:04:00;4.57;;;0.70;;
60896;SDS011;46749;32.932;-117.130;2023-01-15T09:06:26;7.35;;;0.90;;
60896;SDS011;46749;32.932;-117.130;2023-01-15T09:08:53;3.28;;;0.90;;
60896;SDS011;46749;32.932;-117.130;2023-01-15T09:11:19;2.30;;;0.80;;
60896;SDS011;46749;32.932;-117.130;2023-01-15T09:13:45;3.33;;;0.80;;
60896;SDS011;46749;32.932;-117.130;2023-01-15T09:16:12;2.95;;;0.90;;
60896;SDS011;46749;32.932;-117.130;2023-01-15T09:18:38;2.92;;;0.57;;
60896;SDS011;46749;32.932;-117.130;2023-01-15T09:21:05;3.25;;;0.70;;
60896;SDS011;46749;32.932;-117.130;2023-01-15T09:23:32;4.45;;;0.88;;
60896;SDS011;46749;32.932;-117.130;2023-01-15T09:25:59;1.88;;;0.82;;
60896;SDS011;46749;32.932;-117.130;2023-01-15T09:28:27;4.00;;;0.73;;
60896;SDS011;46749;32.932;-117.130;2023-01-15T09:30:53;3.53;;;0.70;;
60896;SDS011;46749;32.932;-117.130;2023-01-15T09:33:20;2.25;;;0.65;;
60896;SDS011;46749;32.932;-117.130;2023-01-15T09:35:46;3.55;;;1.10;;
60896;SDS011;46749;32.932;-117.130;2023-01-15T09:38:39;4.88;;;0.82;;
60896;SDS011;46749;32.932;-117.130;2023-01-15T09:41:10;3.00;;;0.82;;
60896;SDS011;46749;32.932;-117.130;2023-01-15T09:44:04;5.50;;;0.75;;
60896;SDS011;46749;32.932;-117.130;2023-01-15T09:57:44;2.03;;;0.80;;
60896;SDS011;46749;32.932;-117.130;2023-01-15T10:00:18;3.80;;;0.90;;
60896;SDS011;46749;32.932;-117.130;2023-01-15T10:02:51;2.08;;;0.65;;
60896;SDS011;46749;32.932;-117.130;2023-01-15T10:05:49;2.95;;;1.25;;
60896;SDS011;46749;32.932;-117.130;2023-01-15T10:11:18;4.03;;;0.80;;
60896;SDS011;46749;32.932;-117.130;2023-01-15T10:14:10;5.18;;;0.90;;
60896;SDS011;46749;32.932;-117.130;2023-01-15T10:16:43;3.20;;;0.65;;
60896;SDS011;46749;32.932;-117.130;2023-01-15T10:19:09;4.32;;;0.93;;
60896;SDS011;46749;32.932;-117.130;2023-01-15T10:21:55;2.30;;;0.80;;
60896;SDS011;46749;32.932;-117.130;2023-01-15T10:24:43;1.73;;;0.60;;
60896;SDS011;46749;32.932;-117.130;2023-01-15T10:27:21;2.92;;;0.60;;
60896;SDS011;46749;32.932;-117.130;2023-01-15T10:33:08;5.45;;;1.20;;
60896;SDS011;46749;32.932;-117.130;2023-01-15T10:36:43;2.60;;;0.60;;
60896;SDS011;46749;32.932;-117.130;2023-01-15T10:39:18;1.85;;;0.70;;
60896;SDS011;46749;32.932;-117.130;2023-01-15T10:42:19;4.80;;;0.95;;
60896;SDS011;46749;32.932;-117.130;2023-01-15T10:45:04;2.25;;;0.65;;
60896;SDS011;46749;32.932;-117.130;2023-01-15T10:47:36;2.67;;;0.75;;
60896;SDS011;46749;32.932;-117.130;2023-01-15T10:50:20;1.73;;;0.77;;
60896;SDS011;46749;32.932;-117.130;2023-01-15T10:52:49;1.98;;;0.60;;
60896;SDS011;46749;32.932;-117.130;2023-01-15T10:55:35;4.68;;;0.63;;
60896;SDS011;46749;32.932;-117.130;2023-01-15T10:58:11;3.78;;;0.90;;
60896;SDS011;46749;32.932;-117.130;2023-01-15T11:00:39;4.75;;;0.85;;
60896;SDS011;46749;32.932;-117.130;2023-01-15T11:03:11;1.90;;;0.98;;
60896;SDS011;46749;32.932;-117.130;2023-01-15T11:05:42;3.70;;;0.93;;
60896;SDS011;46749;32.932;-117.130;2023-01-15T11:08:22;3.10;;;0.60;;
60896;SDS011;46749;32.932;-117.130;2023-01-15T11:10:56;1.83;;;0.60;;
60896;SDS011;46749;32.932;-117.130;2023-01-15T11:13:30;4.28;;;0.70;;
60896;SDS011;46749;32.932;-117.130;2023-01-15T11:16:15;1.80;;;0.70;;
60896;SDS011;46749;32.932;-117.130;2023-01-15T11:19:04;3.10;;;0.70;;
60896;SDS011;46749;32.932;-117.130;2023-01-15T11:22:15;2.45;;;0.60;;
60896;SDS011;46749;32.932;-117.130;2023-01-15T11:24:48;3.58;;;0.95;;
60896;SDS011;46749;32.932;-117.130;2023-01-15T11:27:28;3.25;;;0.70;;
60896;SDS011;46749;32.932;-117.130;2023-01-15T11:29:58;2.67;;;0.60;;
60896;SDS011;46749;32.932;-117.130;2023-01-15T11:32:35;3.53;;;0.65;;
60896;SDS011;46749;32.932;-117.130;2023-01-15T11:35:13;2.85;;;0.60;;
60896;SDS011;46749;32.932;-117.130;2023-01-15T11:37:43;2.42;;;1.00;;
60896;SDS011;46749;32.932;-117.130;2023-01-15T11:40:17;4.38;;;0.80;;
60896;SDS011;46749;32.932;-117.130;2023-01-15T11:42:48;4.22;;;0.88;;
60896;SDS011;46749;32.932;-117.130;2023-01-15T11:45:34;4.43;;;0.70;;
60896;SDS011;46749;32.932;-117.130;2023-01-15T11:48:32;2.05;;;0.75;;
60896;SDS011;46749;32.932;-117.130;2023-01-15T11:51:26;2.78;;;0.68;;
60896;SDS011;46749;32.932;-117.130;2023-01-15T11:53:54;2.30;;;0.75;;
60896;SDS011;46749;32.932;-117.130;2023-01-15T11:56:25;3.45;;;0.65;;
60896;SDS011;46749;32.932;-117.130;2023-01-15T11:58:56;2.95;;;0.95;;
60896;SDS011;46749;32.932;-117.130;2023-01-15T12:01:29;4.07;;;0.95;;
60896;SDS011;46749;32.932;-117.130;2023-01-15T12:07:11;3.75;;;1.00;;
60896;SDS011;46749;32.932;-117.130;2023-01-15T12:15:56;2.42;;;0.60;;
60896;SDS011;46749;32.932;-117.130;2023-01-15T12:22:02;2.60;;;0.80;;
60896;SDS011;46749;32.932;-117.130;2023-01-15T12:33:36;3.58;;;0.80;;
60896;SDS011;46749;32.932;-117.130;2023-01-15T12:36:19;2.20;;;0.90;;
60896;SDS011;46749;32.932;-117.130;2023-01-15T12:38:54;3.63;;;0.80;;
60896;SDS011;46749;32.932;-117.130;2023-01-15T12:41:26;2.28;;;0.65;;
60896;SDS011;46749;32.932;-117.130;2023-01-15T12:44:59;3.58;;;0.90;;
60896;SDS011;46749;32.932;-117.130;2023-01-15T12:47:41;3.00;;;0.75;;
60896;SDS011;46749;32.932;-117.130;2023-01-15T12:53:02;3.75;;;0.80;;
60896;SDS011;46749;32.932;-117.130;2023-01-15T12:55:59;3.78;;;1.23;;
60896;SDS011;46749;32.932;-117.130;2023-01-15T13:03:54;2.38;;;0.65;;
60896;SDS011;46749;32.932;-117.130;2023-01-15T13:06:57;3.38;;;0.70;;
60896;SDS011;46749;32.932;-117.130;2023-01-15T13:13:15;4.55;;;0.80;;
60896;SDS011;46749;32.932;-117.130;2023-01-15T13:16:26;3.20;;;0.80;;
60896;SDS011;46749;32.932;-117.130;2023-01-15T13:21:33;4.97;;;1.17;;
60896;SDS011;46749;32.932;-117.130;2023-01-15T13:32:31;2.95;;;0.70;;
60896;SDS011;46749;32.932;-117.130;2023-01-15T13:35:04;2.45;;;0.95;;
60896;SDS011;46749;32.932;-117.130;2023-01-15T13:37:50;4.25;;;0.80;;
60896;SDS011;46749;32.932;-117.130;2023-01-15T13:40:22;2.25;;;0.60;;
60896;SDS011;46749;32.932;-117.130;2023-01-15T13:42:53;3.67;;;1.25;;
60896;SDS011;46749;32.932;-117.130;2023-01-15T13:45:23;4.10;;;1.00;;
60896;SDS011;46749;32.932;-117.130;2023-01-15T13:48:03;3.20;;;1.00;;
60896;SDS011;46749;32.932;-117.130;2023-01-15T13:50:33;3.90;;;0.80;;
60896;SDS011;46749;32.932;-117.130;2023-01-15T13:53:06;7.10;;;0.90;;
60896;SDS011;46749;32.932;-117.130;2023-01-15T13:55:35;2.33;;;0.88;;
60896;SDS011;46749;32.932;-117.130;2023-01-15T13:58:19;3.47;;;0.88;;
60896;SDS011;46749;32.932;-117.130;2023-01-15T14:01:03;3.35;;;0.90;;
60896;SDS011;46749;32.932;-117.130;2023-01-15T14:06:37;4.85;;;0.80;;
60896;SDS011;46749;32.932;-117.130;2023-01-15T14:12:06;3.63;;;0.90;;
60896;SDS011;46749;32.932;-117.130;2023-01-15T14:26:16;3.10;;;1.05;;
60896;SDS011;46749;32.932;-117.130;2023-01-15T14:34:54;1.98;;;0.80;;
60896;SDS011;46749;32.932;-117.130;2023-01-15T14:37:25;2.35;;;0.77;;
60896;SDS011;46749;32.932;-117.130;2023-01-15T14:39:57;2.45;;;0.75;;
60896;SDS011;46749;32.932;-117.130;2023-01-15T14:47:53;3.00;;;0.70;;
60896;SDS011;46749;32.932;-117.130;2023-01-15T14:50:39;4.00;;;1.05;;
60896;SDS011;46749;32.932;-117.130;2023-01-15T14:58:36;3.80;;;0.82;;
60896;SDS011;46749;32.932;-117.130;2023-01-15T15:03:59;3.30;;;0.60;;
60896;SDS011;46749;32.932;-117.130;2023-01-15T15:06:32;3.05;;;0.65;;
60896;SDS011;46749;32.932;-117.130;2023-01-15T15:09:09;3.97;;;0.82;;
60896;SDS011;46749;32.932;-117.130;2023-01-15T15:11:40;3.17;;;0.77;;
60896;SDS011;46749;32.932;-117.130;2023-01-15T15:14:30;1.73;;;0.70;;
60896;SDS011;46749;32.932;-117.130;2023-01-15T15:17:03;2.50;;;0.80;;
60896;SDS011;46749;32.932;-117.130;2023-01-15T15:19:39;3.10;;;0.73;;
60896;SDS011;46749;32.932;-117.130;2023-01-15T15:22:12;2.88;;;0.98;;
60896;SDS011;46749;32.932;-117.130;2023-01-15T15:24:49;2.05;;;0.60;;
60896;SDS011;46749;32.932;-117.130;2023-01-15T15:29:48;2.38;;;0.60;;
60896;SDS011;46749;32.932;-117.130;2023-01-15T15:32:19;2.90;;;0.60;;
60896;SDS011;46749;32.932;-117.130;2023-01-15T15:34:48;2.58;;;0.60;;
60896;SDS011;46749;32.932;-117.130;2023-01-15T15:37:18;1.13;;;0.57;;
60896;SDS011;46749;32.932;-117.130;2023-01-15T15:42:27;1.02;;;0.50;;
60896;SDS011;46749;32.932;-117.130;2023-01-15T15:45:28;1.75;;;0.70;;
60896;SDS011;46749;32.932;-117.130;2023-01-15T15:51:03;2.35;;;0.60;;
60896;SDS011;46749;32.932;-117.130;2023-01-15T15:53:30;1.58;;;0.60;;
60896;SDS011;46749;32.932;-117.130;2023-01-15T15:55:57;3.20;;;0.80;;
60896;SDS011;46749;32.932;-117.130;2023-01-15T15:58:27;1.98;;;0.50;;
60896;SDS011;46749;32.932;-117.130;2023-01-15T16:00:55;3.15;;;0.52;;
60896;SDS011;46749;32.932;-117.130;2023-01-15T16:03:22;2.15;;;0.50;;
60896;SDS011;46749;32.932;-117.130;2023-01-15T16:05:54;1.20;;;0.50;;
60896;SDS011;46749;32.932;-117.130;2023-01-15T16:08:21;1.45;;;0.40;;
60896;SDS011;46749;32.932;-117.130;2023-01-15T16:10:49;1.33;;;0.55;;
60896;SDS011;46749;32.932;-117.130;2023-01-15T16:13:25;2.80;;;0.50;;
60896;SDS011;46749;32.932;-117.130;2023-01-15T16:15:52;1.40;;;0.52;;
60896;SDS011;46749;32.932;-117.130;2023-01-15T16:18:26;1.77;;;0.50;;
60896;SDS011;46749;32.932;-117.130;2023-01-15T16:20:56;1.52;;;0.30;;
60896;SDS011;46749;32.932;-117.130;2023-01-15T16:23:24;0.85;;;0.40;;
60896;SDS011;46749;32.932;-117.130;2023-01-15T16:26:02;0.40;;;0.30;;
60896;SDS011;46749;32.932;-117.130;2023-01-15T16:28:53;0.57;;;0.38;;
60896;SDS011;46749;32.932;-117.130;2023-01-15T16:31:23;1.20;;;0.50;;
60896;SDS011;46749;32.932;-117.130;2023-01-15T16:33:54;1.48;;;0.50;;
60896;SDS011;46749;32.932;-117.130;2023-01-15T16:36:22;4.32;;;0.30;;
60896;SDS011;46749;32.932;-117.130;2023-01-15T16:38:50;5.07;;;0.40;;
60896;SDS011;46749;32.932;-117.130;2023-01-15T16:41:19;3.42;;;0.50;;
60896;SDS011;46749;32.932;-117.130;2023-01-15T16:43:50;2.50;;;0.40;;
60896;SDS011;46749;32.932;-117.130;2023-01-15T16:46:23;2.45;;;0.60;;
60896;SDS011;46749;32.932;-117.130;2023-01-15T16:49:37;2.75;;;0.40;;